Terminal Aerodrome Forecast
Issued by NWS Corpus Christi, TX

Home | Current Version | Previous Version | Text Only | Print | Product List | Glossary On
Versions: 1 2 3 4 5 6 7 8 9 10 11 12 13 14
000
FTUS44 KCRP 202300
TAFCRP
TAF
KCRP 202337Z 2100/2124 14020G30KT P6SM SCT045 SCT200
     FM210200 15015KT P6SM FEW018 SCT200
     FM210900 16010KT P6SM SCT015
     FM211500 17018G25KT P6SM SCT035
     FM211800 14020G30KT P6SM SCT045=

USA.gov is the U.S. government's official web portal to all federal, state and local government web resources and services.